Time;durP1;ratioP1;P1;durP2;ratioP2;P2;SDS_P1;SDS_P2;PMS_P1;PMS_P2;Temp;Humidity;BMP_temperature;BMP_pressure;BME280_temperature;BME280_humidity;BME280_pressure;Samples;Min_cycle;Max_cycle;Signal;HPM_P1;HPM_P2
2023/05/28 00:01:18;;;;;;;20.65;5.57;;;14.10;99.90;;;;;;5010063;28;20049;-87
2023/05/28 00:03:43;;;;;;;17.10;6.53;;;12.40;99.90;;;;;;5011126;28;20042;-88
2023/05/28 00:06:09;;;;;;;15.48;5.40;;;12.40;99.90;;;;;;5011711;28;20065;-84
2023/05/28 00:08:35;;;;;;;15.23;4.97;;;12.40;99.90;;;;;;5011136;28;20176;-85
2023/05/28 00:11:01;;;;;;;16.67;5.82;;;12.40;99.90;;;;;;4992828;28;20406;-90
2023/05/28 00:13:30;;;;;;;12.85;4.47;;;14.10;99.90;;;;;;5010434;28;20111;-90
2023/05/28 00:15:56;;;;;;;21.15;5.90;;;14.60;99.90;;;;;;4994722;28;20045;-86
2023/05/28 00:18:23;;;;;;;15.70;5.25;;;12.50;99.90;;;;;;5012564;28;20046;-92
2023/05/28 00:20:49;;;;;;;20.77;5.30;;;12.50;99.90;;;;;;4994452;28;20073;-90
2023/05/28 00:23:16;;;;;;;16.17;4.72;;;12.50;99.90;;;;;;4994075;28;20594;-91
2023/05/28 00:25:42;;;;;;;12.63;4.75;;;12.50;99.90;;;;;;5010905;28;20089;-89
2023/05/28 00:28:07;;;;;;;15.32;5.35;;;12.50;99.90;;;;;;5010055;28;20077;-87
2023/05/28 00:30:33;;;;;;;14.93;5.50;;;14.00;99.90;;;;;;5010646;28;20050;-90
2023/05/28 00:32:58;;;;;;;12.88;5.28;;;13.50;99.90;;;;;;5010221;28;20046;-90
2023/05/28 00:35:25;;;;;;;14.68;5.70;;;12.60;99.90;;;;;;5010032;28;20401;-90
2023/05/28 00:37:52;;;;;;;15.10;4.80;;;12.60;99.90;;;;;;5010586;28;20056;-91
2023/05/28 00:40:18;;;;;;;14.40;5.40;;;14.70;99.90;;;;;;5010398;28;20052;-86
2023/05/28 00:42:44;;;;;;;11.57;5.28;;;14.20;99.90;;;;;;5010574;28;20409;-91
2023/05/28 00:45:11;;;;;;;13.13;5.10;;;12.90;99.90;;;;;;5020678;28;20046;-86
2023/05/28 00:47:40;;;;;;;12.15;4.63;;;12.50;99.90;;;;;;5017686;28;20049;-86
2023/05/28 00:50:08;;;;;;;16.45;5.78;;;12.50;99.90;;;;;;5009988;28;20046;-86
2023/05/28 00:52:35;;;;;;;16.30;5.55;;;12.60;99.90;;;;;;5009782;28;20120;-89
2023/05/28 00:55:01;;;;;;;16.25;5.28;;;13.40;99.90;;;;;;5009710;28;20121;-89
2023/05/28 00:57:27;;;;;;;14.88;5.95;;;14.40;99.90;;;;;;5009949;28;20488;-91
2023/05/28 00:59:57;;;;;;;12.20;5.45;;;12.50;99.90;;;;;;5010056;28;20414;-91
2023/05/28 01:02:23;;;;;;;18.27;5.90;;;12.50;99.90;;;;;;5011096;28;20038;-88
2023/05/28 01:04:48;;;;;;;15.02;5.38;;;13.50;99.90;;;;;;5011450;28;20410;-90
2023/05/28 01:07:14;;;;;;;18.95;5.35;;;12.40;99.90;;;;;;4992088;28;20061;-91
2023/05/28 01:09:40;;;;;;;14.40;5.05;;;12.40;99.90;;;;;;5009780;28;20058;-91
2023/05/28 01:12:08;;;;;;;14.63;5.35;;;12.50;99.90;;;;;;5009154;28;20049;-88
2023/05/28 01:14:37;;;;;;;15.90;5.13;;;12.40;99.90;;;;;;5008489;28;20049;-92
2023/05/28 01:17:03;;;;;;;13.27;4.97;;;14.00;99.90;;;;;;5008780;28;20429;-85
2023/05/28 01:19:31;;;;;;;13.65;5.00;;;12.40;99.90;;;;;;5009488;28;20060;-88
2023/05/28 01:22:04;;;;;;;14.02;5.15;;;12.40;99.90;;;;;;5009209;28;20068;-87
2023/05/28 01:24:32;;;;;;;19.10;5.10;;;12.40;99.90;;;;;;5008672;28;20054;-89
2023/05/28 01:26:59;;;;;;;14.45;5.32;;;12.60;99.90;;;;;;5009538;28;20046;-90
2023/05/28 01:29:24;;;;;;;16.65;5.47;;;12.60;99.90;;;;;;5009278;28;20413;-91
2023/05/28 01:31:50;;;;;;;14.63;5.50;;;12.40;99.90;;;;;;4991147;28;20114;-86
2023/05/28 01:34:16;;;;;;;12.05;4.72;;;12.40;99.90;;;;;;4992099;28;20124;-87
2023/05/28 01:36:49;;;;;;;15.70;5.70;;;14.00;99.90;;;;;;4991924;28;20129;-88
2023/05/28 01:39:16;;;;;;;14.52;5.32;;;12.40;99.90;;;;;;5000749;28;20129;-88
2023/05/28 01:41:45;;;;;;;12.95;5.65;;;12.30;99.90;;;;;;4992347;28;20389;-83
2023/05/28 01:44:13;;;;;;;23.73;6.13;;;14.00;99.90;;;;;;5009448;28;20052;-88
2023/05/28 01:46:41;;;;;;;13.52;4.93;;;12.20;99.90;;;;;;5009988;28;20050;-93
2023/05/28 01:49:10;;;;;;;19.42;5.43;;;12.30;99.90;;;;;;5009937;28;20053;-91
2023/05/28 01:51:36;;;;;;;12.90;5.40;;;12.20;99.90;;;;;;5009709;28;20473;-90
2023/05/28 01:54:02;;;;;;;13.52;5.38;;;12.10;99.90;;;;;;5009175;28;20045;-87
2023/05/28 01:56:27;;;;;;;10.93;5.35;;;12.10;99.90;;;;;;5010885;28;20045;-93
2023/05/28 01:58:53;;;;;;;18.02;5.90;;;13.20;99.90;;;;;;5009457;28;20494;-86
2023/05/28 02:01:32;;;;;;;17.88;5.75;;;12.10;99.90;;;;;;5009870;28;20050;-91
2023/05/28 02:03:59;;;;;;;13.57;5.10;;;12.10;99.90;;;;;;4991521;28;20042;-91
2023/05/28 02:06:26;;;;;;;16.30;5.70;;;13.70;99.90;;;;;;5008592;28;20049;-88
2023/05/28 02:08:52;;;;;;;16.05;6.05;;;12.10;99.90;;;;;;5008984;28;20057;-88
2023/05/28 02:11:18;;;;;;;16.15;5.15;;;12.00;99.90;;;;;;4991519;28;20103;-90
2023/05/28 02:13:44;;;;;;;18.38;5.57;;;12.50;99.90;;;;;;5008783;28;20049;-89
2023/05/28 02:16:10;;;;;;;13.15;5.47;;;12.10;99.90;;;;;;5011468;28;20694;-92
2023/05/28 02:18:37;;;;;;;12.10;5.35;;;12.90;99.90;;;;;;5010318;28;20046;-89
2023/05/28 02:21:03;;;;;;;15.48;5.22;;;12.10;99.90;;;;;;4990600;28;20052;-93
2023/05/28 02:23:29;;;;;;;12.75;5.47;;;12.10;99.90;;;;;;5008772;28;20148;-86
2023/05/28 02:25:55;;;;;;;17.75;5.45;;;12.10;99.90;;;;;;5010665;28;20038;-86
2023/05/28 02:28:20;;;;;;;17.63;6.20;;;13.10;99.90;;;;;;4996158;28;20050;-87
2023/05/28 02:30:46;;;;;;;13.93;5.30;;;12.10;99.90;;;;;;5014424;28;20192;-85
2023/05/28 02:33:11;;;;;;;14.13;5.88;;;13.30;99.90;;;;;;5013946;28;20034;-88
2023/05/28 02:35:37;;;;;;;14.90;5.70;;;12.00;99.90;;;;;;5019564;28;20110;-83
2023/05/28 02:38:03;;;;;;;17.42;5.10;;;13.20;99.90;;;;;;5020553;28;20342;-86
2023/05/28 02:40:28;;;;;;;12.02;5.60;;;12.00;99.90;;;;;;4980422;28;20049;-88
2023/05/28 02:42:54;;;;;;;12.65;5.72;;;13.20;99.90;;;;;;5012587;28;20080;-89
2023/05/28 02:45:19;;;;;;;12.43;6.28;;;12.00;99.90;;;;;;5013340;28;20077;-84
2023/05/28 02:47:45;;;;;;;16.27;5.90;;;13.70;99.90;;;;;;5013763;28;20413;-91
2023/05/28 02:50:12;;;;;;;14.63;5.80;;;11.90;99.90;;;;;;5012477;28;20146;-92
2023/05/28 02:52:37;;;;;;;15.18;5.95;;;11.90;99.90;;;;;;5011934;28;20133;-85
2023/05/28 02:55:03;;;;;;;11.45;5.45;;;13.70;99.90;;;;;;4994093;28;20060;-86
2023/05/28 02:57:29;;;;;;;17.35;5.90;;;11.90;99.90;;;;;;4995003;28;20042;-90
2023/05/28 02:59:54;;;;;;;17.58;5.25;;;12.70;99.90;;;;;;5012056;28;20045;-82
2023/05/28 03:02:20;;;;;;;14.55;4.95;;;12.50;99.90;;;;;;5011929;28;20434;-89
2023/05/28 03:04:45;;;;;;;14.65;5.95;;;11.90;99.90;;;;;;5013662;28;20034;-85
2023/05/28 03:07:11;;;;;;;14.40;6.03;;;12.70;99.90;;;;;;4995213;28;20058;-90
2023/05/28 03:09:37;;;;;;;15.13;5.68;;;12.70;99.90;;;;;;5012479;28;20124;-89
2023/05/28 03:12:03;;;;;;;14.95;6.63;;;13.40;99.90;;;;;;4994980;28;20044;-87
2023/05/28 03:14:28;;;;;;;17.90;5.43;;;11.90;99.90;;;;;;5012841;28;20137;-90
2023/05/28 03:16:54;;;;;;;17.30;6.30;;;11.90;99.90;;;;;;5013301;28;20080;-91
2023/05/28 03:19:20;;;;;;;13.45;5.70;;;11.90;99.90;;;;;;5012570;28;20076;-86
2023/05/28 03:21:45;;;;;;;11.68;6.15;;;11.90;99.90;;;;;;4995988;28;20141;-91
2023/05/28 03:24:11;;;;;;;14.38;6.15;;;11.90;99.90;;;;;;4994710;28;20049;-86
2023/05/28 03:26:37;;;;;;;14.18;5.53;;;11.90;99.90;;;;;;5013016;28;20042;-88
2023/05/28 03:29:02;;;;;;;14.15;5.93;;;12.00;99.90;;;;;;5013754;28;20521;-90
2023/05/28 03:31:30;;;;;;;17.50;5.90;;;12.50;99.90;;;;;;5012267;28;20112;-90
2023/05/28 03:33:55;;;;;;;20.27;6.75;;;11.80;99.90;;;;;;5014694;28;20437;-83
2023/05/28 03:36:22;;;;;;;14.60;5.95;;;11.80;99.90;;;;;;5013579;28;20044;-87
2023/05/28 03:38:47;;;;;;;14.95;5.78;;;11.80;99.90;;;;;;5010795;28;20509;-86
2023/05/28 03:41:13;;;;;;;13.68;5.45;;;11.80;99.90;;;;;;5011162;28;20041;-89
2023/05/28 03:43:39;;;;;;;13.68;5.57;;;12.00;99.90;;;;;;5010991;28;20141;-88
2023/05/28 03:46:05;;;;;;;14.45;5.80;;;12.90;99.90;;;;;;5010871;28;20064;-90
2023/05/28 03:48:30;;;;;;;16.23;5.78;;;11.80;99.90;;;;;;5011697;28;20117;-91
2023/05/28 03:50:56;;;;;;;15.70;6.25;;;11.80;99.90;;;;;;5010944;28;20096;-87
2023/05/28 03:53:22;;;;;;;11.35;5.30;;;11.80;99.90;;;;;;5011568;28;20049;-93
2023/05/28 03:55:48;;;;;;;17.17;5.60;;;11.80;99.90;;;;;;5012365;28;20053;-91
2023/05/28 03:58:15;;;;;;;14.90;6.13;;;11.80;99.90;;;;;;5010904;28;20038;-86
2023/05/28 04:00:41;;;;;;;11.65;5.88;;;13.40;99.90;;;;;;5011033;28;20377;-92
2023/05/28 04:03:06;;;;;;;17.80;5.57;;;11.80;99.90;;;;;;5011549;28;20041;-92
2023/05/28 04:05:33;;;;;;;16.67;6.07;;;11.80;99.90;;;;;;5010991;28;20045;-92
2023/05/28 04:07:59;;;;;;;15.82;5.88;;;11.80;99.90;;;;;;5011286;28;20053;-87
2023/05/28 04:10:25;;;;;;;11.07;5.53;;;11.80;99.90;;;;;;4995046;28;20136;-89
2023/05/28 04:12:52;;;;;;;17.38;5.45;;;12.00;99.90;;;;;;4977770;28;20137;-92
2023/05/28 04:15:18;;;;;;;15.13;5.88;;;11.80;99.90;;;;;;5012022;28;20742;-91
2023/05/28 04:17:44;;;;;;;13.27;5.63;;;11.70;99.90;;;;;;5012174;28;20030;-90
2023/05/28 04:20:10;;;;;;;11.38;5.25;;;11.70;99.90;;;;;;5010525;28;20437;-91
2023/05/28 04:22:36;;;;;;;13.15;5.65;;;11.70;99.90;;;;;;5010805;28;20069;-91
2023/05/28 04:25:02;;;;;;;16.92;5.68;;;13.20;99.90;;;;;;5013931;28;20045;-89
2023/05/28 04:27:28;;;;;;;11.15;5.18;;;11.70;99.90;;;;;;5001499;28;20038;-94
2023/05/28 04:29:56;;;;;;;15.98;5.55;;;11.70;99.90;;;;;;5020031;28;20478;-86
2023/05/28 04:32:22;;;;;;;20.63;5.28;;;12.80;99.90;;;;;;5013388;28;20046;-87
2023/05/28 04:34:48;;;;;;;17.05;5.18;;;12.00;99.90;;;;;;4994410;28;20046;-84
2023/05/28 04:37:15;;;;;;;14.02;5.22;;;11.70;99.90;;;;;;5011287;28;20436;-89
2023/05/28 04:39:40;;;;;;;18.58;6.30;;;11.70;99.90;;;;;;5010603;28;20046;-84
2023/05/28 04:42:09;;;;;;;15.73;6.32;;;11.70;99.90;;;;;;5010414;28;20030;-84
2023/05/28 04:44:34;;;;;;;13.23;5.45;;;11.70;99.90;;;;;;5010968;28;20073;-88
2023/05/28 04:47:00;;;;;;;16.13;6.00;;;11.60;99.90;;;;;;4992326;28;20077;-92
2023/05/28 04:49:26;;;;;;;13.07;5.22;;;11.80;99.90;;;;;;5009751;28;20046;-88
2023/05/28 04:51:52;;;;;;;13.95;5.25;;;11.80;99.90;;;;;;5011447;28;20065;-90
2023/05/28 04:54:17;;;;;;;14.75;5.50;;;12.00;99.90;;;;;;5014791;28;20049;-91
2023/05/28 04:56:43;;;;;;;11.65;4.72;;;12.10;99.90;;;;;;5011046;28;20393;-83
2023/05/28 04:59:09;;;;;;;16.92;5.68;;;12.90;99.90;;;;;;4993884;28;20565;-88
2023/05/28 05:01:36;;;;;;;13.15;5.10;;;13.60;99.90;;;;;;5010874;28;20032;-93
2023/05/28 05:04:02;;;;;;;13.00;5.40;;;11.90;99.90;;;;;;5011863;28;20045;-89
2023/05/28 05:06:28;;;;;;;13.50;5.38;;;12.50;99.90;;;;;;4994798;28;20045;-92
2023/05/28 05:08:53;;;;;;;17.27;5.68;;;11.90;99.90;;;;;;4992945;28;20493;-87
2023/05/28 05:11:20;;;;;;;9.25;4.75;;;12.30;99.90;;;;;;5010219;28;20118;-86
2023/05/28 05:13:45;;;;;;;13.10;5.10;;;11.90;99.90;;;;;;5009686;28;20573;-92
2023/05/28 05:16:12;;;;;;;11.32;5.60;;;13.20;99.90;;;;;;5008788;28;20113;-92
2023/05/28 05:18:38;;;;;;;11.70;5.47;;;13.00;99.90;;;;;;5009199;28;20758;-91
2023/05/28 05:21:04;;;;;;;14.27;5.70;;;11.90;99.90;;;;;;5010055;28;20042;-84
2023/05/28 05:23:29;;;;;;;13.55;5.97;;;11.90;99.90;;;;;;5002368;28;20042;-90
2023/05/28 05:25:55;;;;;;;13.68;5.70;;;11.90;99.90;;;;;;4977913;28;20409;-88
2023/05/28 05:28:20;;;;;;;15.60;5.82;;;11.90;99.90;;;;;;4993540;28;20046;-89
2023/05/28 05:30:47;;;;;;;12.48;5.70;;;13.30;99.90;;;;;;5011158;28;20038;-86
2023/05/28 05:33:12;;;;;;;16.23;6.78;;;11.90;99.90;;;;;;5010998;28;20037;-91
2023/05/28 05:35:38;;;;;;;12.75;5.47;;;11.90;99.90;;;;;;5011533;28;20042;-87
2023/05/28 05:38:03;;;;;;;11.50;5.72;;;11.90;99.90;;;;;;5012187;28;20385;-84
2023/05/28 05:40:29;;;;;;;14.63;4.95;;;12.00;99.90;;;;;;5018940;28;20045;-85
2023/05/28 05:42:55;;;;;;;12.48;5.07;;;12.00;99.90;;;;;;5013931;28;20045;-86
2023/05/28 05:45:21;;;;;;;13.23;5.13;;;13.60;99.90;;;;;;5011618;28;20057;-85
2023/05/28 05:47:46;;;;;;;13.93;5.78;;;12.00;99.90;;;;;;5011185;28;20045;-90
2023/05/28 05:50:12;;;;;;;9.57;4.80;;;12.10;99.90;;;;;;5010637;28;20046;-93
2023/05/28 05:52:38;;;;;;;11.30;5.15;;;12.10;99.90;;;;;;4992688;28;20037;-90
2023/05/28 05:55:05;;;;;;;13.07;4.85;;;12.10;99.90;;;;;;4993665;28;20081;-90
2023/05/28 05:57:32;;;;;;;13.07;4.95;;;12.10;99.90;;;;;;5010722;28;20116;-89
2023/05/28 05:59:57;;;;;;;16.02;5.20;;;12.50;99.90;;;;;;5010773;28;20053;-94
2023/05/28 06:02:23;;;;;;;10.90;4.90;;;13.20;99.90;;;;;;5015159;28;20037;-91
2023/05/28 06:04:49;;;;;;;17.10;5.40;;;12.30;99.90;;;;;;5013926;28;20045;-86
2023/05/28 06:07:15;;;;;;;15.52;5.93;;;12.30;99.90;;;;;;5013347;28;20053;-87
2023/05/28 06:09:40;;;;;;;11.70;5.30;;;13.50;99.90;;;;;;4995852;28;20172;-92
2023/05/28 06:12:06;;;;;;;12.13;5.80;;;12.40;99.90;;;;;;5013168;28;20066;-88
2023/05/28 06:14:32;;;;;;;16.33;5.25;;;12.50;99.90;;;;;;5000009;28;20543;-90
2023/05/28 06:16:58;;;;;;;14.90;5.80;;;12.50;99.90;;;;;;5014876;28;20050;-89
2023/05/28 06:19:23;;;;;;;14.65;6.07;;;13.60;99.90;;;;;;5019904;28;20038;-93
2023/05/28 06:21:49;;;;;;;17.30;5.20;;;12.60;99.90;;;;;;5022056;28;20034;-94
2023/05/28 06:24:14;;;;;;;14.20;5.03;;;12.70;99.90;;;;;;5015085;28;20328;-92
2023/05/28 06:26:40;;;;;;;13.10;5.47;;;12.70;99.90;;;;;;5012583;28;20037;-91
2023/05/28 06:29:07;;;;;;;22.02;5.80;;;12.80;99.90;;;;;;5013307;28;20052;-91
2023/05/28 06:31:33;;;;;;;15.57;5.47;;;12.80;99.90;;;;;;5012841;28;20038;-89
2023/05/28 06:33:59;;;;;;;14.32;5.78;;;13.40;99.90;;;;;;5011850;28;20474;-93
2023/05/28 06:36:24;;;;;;;14.48;5.78;;;12.90;99.90;;;;;;5012930;28;20040;-93
2023/05/28 06:38:50;;;;;;;17.63;6.10;;;13.00;99.90;;;;;;5013118;28;20077;-92
2023/05/28 06:41:15;;;;;;;14.02;5.65;;;13.00;99.90;;;;;;5011722;28;20038;-93
2023/05/28 06:43:41;;;;;;;14.65;6.05;;;13.10;99.90;;;;;;5012600;28;20052;-93
2023/05/28 06:46:08;;;;;;;12.07;5.82;;;13.10;99.90;;;;;;5012708;28;20485;-94
2023/05/28 06:48:33;;;;;;;16.90;6.15;;;13.10;99.90;;;;;;4993776;28;20046;-92
2023/05/28 06:50:59;;;;;;;10.70;5.30;;;13.20;99.90;;;;;;5012036;28;20038;-91
2023/05/28 06:53:25;;;;;;;11.38;5.38;;;14.90;99.90;;;;;;5011896;28;20099;-93
2023/05/28 06:55:52;;;;;;;15.77;6.13;;;13.50;99.90;;;;;;4993990;28;20137;-89
2023/05/28 06:58:17;;;;;;;12.23;5.28;;;14.50;99.90;;;;;;5012965;28;20052;-93
2023/05/28 07:00:43;;;;;;;14.63;6.05;;;14.40;99.90;;;;;;5013014;28;20030;-91
2023/05/28 07:03:08;;;;;;;17.85;6.63;;;14.80;99.90;;;;;;5012194;28;20046;-88
2023/05/28 07:05:36;;;;;;;15.95;5.40;;;15.20;99.90;;;;;;5013723;28;20370;-91
2023/05/28 07:08:02;;;;;;;12.00;5.22;;;14.40;99.90;;;;;;5011811;28;20068;-87
2023/05/28 07:10:27;;;;;;;13.75;4.90;;;14.30;99.90;;;;;;5011271;28;20050;-95
2023/05/28 07:12:53;;;;;;;14.13;5.70;;;13.70;99.90;;;;;;4994519;28;20347;-94
2023/05/28 07:15:21;;;;;;;17.20;5.32;;;13.60;99.90;;;;;;4993877;28;20046;-92
2023/05/28 07:17:46;;;;;;;16.55;6.07;;;13.70;99.90;;;;;;5011975;28;20053;-93
2023/05/28 07:20:12;;;;;;;14.38;5.03;;;13.80;99.90;;;;;;4994446;28;20050;-93
2023/05/28 07:22:38;;;;;;;8.43;4.05;;;13.70;99.90;;;;;;5011163;28;20038;-93
2023/05/28 07:25:04;;;;;;;10.82;4.05;;;15.10;99.90;;;;;;5013747;28;20042;-94
2023/05/28 07:27:29;;;;;;;11.05;4.55;;;13.70;99.90;;;;;;5027250;28;20061;-91
2023/05/28 07:29:56;;;;;;;11.55;4.03;;;13.90;99.90;;;;;;5016853;28;20037;-85
2023/05/28 07:32:21;;;;;;;14.45;4.30;;;13.90;99.90;;;;;;5001761;28;20053;-86
2023/05/28 07:34:47;;;;;;;14.10;4.50;;;13.90;99.90;;;;;;5012891;28;20038;-90
2023/05/28 07:37:13;;;;;;;11.68;4.45;;;14.90;99.90;;;;;;5011913;28;20084;-94
2023/05/28 07:39:38;;;;;;;11.27;4.65;;;14.00;99.90;;;;;;5011520;28;20080;-88
2023/05/28 07:42:06;;;;;;;12.23;4.20;;;14.00;99.90;;;;;;5011176;28;20410;-95
2023/05/28 07:44:31;;;;;;;13.18;4.07;;;14.10;99.90;;;;;;5013112;28;20116;-90
2023/05/28 07:46:57;;;;;;;10.82;4.70;;;15.90;99.90;;;;;;5013275;28;20816;-95
2023/05/28 07:49:23;;;;;;;11.35;4.55;;;15.50;99.90;;;;;;5012200;28;20048;-92
2023/05/28 07:51:48;;;;;;;14.32;4.68;;;14.10;99.90;;;;;;5011386;28;20512;-89
2023/05/28 07:54:14;;;;;;;12.75;4.82;;;14.10;99.90;;;;;;5012299;28;20045;-87
2023/05/28 07:56:40;;;;;;;7.82;3.65;;;15.60;99.90;;;;;;5014835;28;20125;-93
2023/05/28 07:59:06;;;;;;;11.13;4.15;;;14.20;99.90;;;;;;5017499;28;20041;-93
2023/05/28 08:01:34;;;;;;;9.60;4.13;;;14.30;99.90;;;;;;5011361;28;20042;-91
2023/05/28 08:04:00;;;;;;;12.20;4.75;;;14.30;99.90;;;;;;5013614;28;20572;-88
2023/05/28 08:06:26;;;;;;;7.03;3.88;;;14.80;99.90;;;;;;5012785;28;20562;-91
2023/05/28 08:08:52;;;;;;;10.32;4.10;;;15.10;99.90;;;;;;5016538;28;20418;-92
2023/05/28 08:11:17;;;;;;;8.48;3.75;;;14.40;99.90;;;;;;5020957;28;20595;-93
2023/05/28 08:13:43;;;;;;;9.10;4.10;;;14.40;99.90;;;;;;5007603;28;20090;-89
2023/05/28 08:16:12;;;;;;;8.32;3.95;;;14.90;99.90;;;;;;5013880;28;20053;-91
2023/05/28 08:18:39;;;;;;;6.25;2.95;;;16.00;99.90;;;;;;5022763;28;20123;-90
2023/05/28 08:21:05;;;;;;;9.02;3.25;;;16.10;99.90;;;;;;4994765;28;20593;-93
2023/05/28 08:23:34;;;;;;;11.35;3.53;;;14.60;99.90;;;;;;5013587;28;20173;-91
2023/05/28 08:26:01;;;;;;;6.07;2.78;;;15.80;99.90;;;;;;5015373;28;20042;-86
2023/05/28 08:28:27;;;;;;;10.85;3.38;;;14.70;99.90;;;;;;4999742;28;20383;-94
2023/05/28 08:30:53;;;;;;;6.70;3.33;;;15.80;99.90;;;;;;5011797;28;20042;-89
2023/05/28 08:33:19;;;;;;;8.15;3.00;;;14.80;99.90;;;;;;5009619;28;20050;-84
2023/05/28 08:35:44;;;;;;;6.20;3.33;;;14.80;99.90;;;;;;5012220;28;20048;-89
2023/05/28 08:38:10;;;;;;;5.20;3.38;;;14.90;99.90;;;;;;5012398;28;20034;-88
2023/05/28 08:40:41;;;;;;;7.68;3.40;;;14.90;99.90;;;;;;5010578;28;20073;-90
2023/05/28 08:43:07;;;;;;;6.95;3.25;;;14.90;99.90;;;;;;5012119;28;20058;-94
2023/05/28 08:45:35;;;;;;;7.32;3.92;;;15.20;99.90;;;;;;5012743;28;20129;-93
2023/05/28 08:48:00;;;;;;;8.68;3.90;;;15.10;99.90;;;;;;4994394;28;20050;-93
2023/05/28 08:50:28;;;;;;;7.88;4.47;;;15.00;99.90;;;;;;5016044;28;20121;-90
2023/05/28 08:52:56;;;;;;;7.65;4.22;;;15.10;99.90;;;;;;5014581;28;20422;-91
2023/05/28 08:55:22;;;;;;;7.82;4.40;;;15.50;99.90;;;;;;4992697;28;20405;-92
2023/05/28 08:57:47;;;;;;;9.00;4.57;;;15.40;99.90;;;;;;5011431;28;20103;-94
2023/05/28 09:00:13;;;;;;;10.60;5.07;;;15.20;99.90;;;;;;5010706;28;20097;-89
2023/05/28 09:02:39;;;;;;;8.27;5.00;;;15.30;99.90;;;;;;5010557;28;20091;-88
2023/05/28 09:05:06;;;;;;;7.47;4.32;;;16.20;99.90;;;;;;4993015;28;20124;-91
2023/05/28 09:07:32;;;;;;;8.57;4.38;;;15.40;99.90;;;;;;5011106;28;20069;-95
2023/05/28 09:09:58;;;;;;;9.40;4.45;;;15.60;99.90;;;;;;5011240;28;20255;-91
2023/05/28 09:12:24;;;;;;;6.40;4.45;;;15.40;99.90;;;;;;5012082;28;20120;-93
2023/05/28 09:14:52;;;;;;;9.30;4.82;;;15.50;99.90;;;;;;4986017;28;20409;-89
2023/05/28 09:17:39;;;;;;;9.50;5.43;;;15.50;99.90;;;;;;5012304;28;20092;-94
2023/05/28 09:20:12;;;;;;;9.05;4.80;;;15.60;99.90;;;;;;5004242;28;20382;-88
2023/05/28 09:22:38;;;;;;;8.07;5.07;;;15.70;99.90;;;;;;5009798;28;20053;-94
2023/05/28 09:25:09;;;;;;;10.82;5.80;;;16.80;99.90;;;;;;5010930;28;20046;-93
2023/05/28 09:27:36;;;;;;;9.63;5.28;;;15.80;99.90;;;;;;5011683;28;20042;-94
2023/05/28 09:30:08;;;;;;;9.20;4.82;;;15.90;99.90;;;;;;5009658;28;20453;-90
2023/05/28 09:32:34;;;;;;;9.30;5.00;;;15.90;99.90;;;;;;5010974;28;20038;-91
2023/05/28 09:35:00;;;;;;;9.65;5.82;;;16.00;99.90;;;;;;5010149;28;20061;-92
2023/05/28 09:37:29;;;;;;;11.05;5.53;;;16.10;99.90;;;;;;5012545;28;20038;-89
2023/05/28 09:40:03;;;;;;;10.65;5.63;;;16.20;99.90;;;;;;5003781;28;20072;-92
2023/05/28 09:42:51;;;;;;;13.35;6.28;;;16.30;99.90;;;;;;5011333;28;20037;-92
2023/05/28 09:45:23;;;;;;;11.25;6.43;;;16.30;99.90;;;;;;5012187;28;20050;-96
2023/05/28 09:47:49;;;;;;;8.77;5.35;;;17.40;99.90;;;;;;5012374;28;20061;-89
2023/05/28 09:50:15;;;;;;;9.80;6.20;;;16.50;99.90;;;;;;5010842;28;20572;-91
2023/05/28 09:52:44;;;;;;;11.73;6.85;;;16.60;99.90;;;;;;5012399;28;20065;-90
2023/05/28 09:55:13;;;;;;;8.18;6.50;;;16.60;99.90;;;;;;5013586;28;20061;-95
2023/05/28 09:57:46;;;;;;;8.50;6.68;;;17.40;99.90;;;;;;5022238;28;20048;-90
2023/05/28 10:00:19;;;;;;;9.50;7.05;;;16.80;99.90;;;;;;5021792;28;20037;-96
2023/05/28 10:03:12;;;;;;;10.85;6.30;;;16.80;99.90;;;;;;4997385;28;20406;-93
2023/05/28 10:05:42;;;;;;;10.75;6.85;;;16.90;99.90;;;;;;5012561;28;20049;-95
2023/05/28 10:08:11;;;;;;;11.55;6.85;;;16.10;99.90;;;;;;4978325;28;20061;-92
2023/05/28 10:10:40;;;;;;;10.73;7.05;;;17.10;99.90;;;;;;5017101;28;20053;-92
2023/05/28 10:13:09;;;;;;;11.55;7.53;;;17.20;99.90;;;;;;5012411;28;20038;-96
2023/05/28 10:15:35;;;;;;;11.20;7.78;;;17.20;99.90;;;;;;5011143;28;20508;-91
2023/05/28 10:18:02;;;;;;;11.30;7.78;;;17.20;99.90;;;;;;5010692;28;20077;-91
2023/05/28 10:20:29;;;;;;;9.70;7.60;;;17.20;99.60;;;;;;5013860;28;20065;-88
2023/05/28 10:22:55;;;;;;;11.57;7.68;;;17.30;98.80;;;;;;5012885;28;20554;-87
2023/05/28 10:25:22;;;;;;;9.43;7.47;;;17.40;99.00;;;;;;4997314;28;20106;-83
2023/05/28 10:27:51;;;;;;;8.90;7.20;;;17.50;98.80;;;;;;5035688;23;20054;-90
2023/05/28 10:30:32;;;;;;;10.90;7.32;;;17.70;98.90;;;;;;5033391;28;20073;-94
2023/05/28 10:32:58;;;;;;;9.70;6.30;;;17.60;98.70;;;;;;4999120;28;20041;-94
2023/05/28 10:35:24;;;;;;;12.25;6.57;;;17.80;98.80;;;;;;5029346;28;20408;-93
2023/05/28 10:37:50;;;;;;;8.45;5.97;;;18.70;99.30;;;;;;5026760;28;20042;-91
2023/05/28 10:40:23;;;;;;;7.57;4.70;;;17.90;99.10;;;;;;5022804;28;20037;-89
2023/05/28 10:42:49;;;;;;;6.82;5.10;;;18.00;99.00;;;;;;5023000;28;20541;-94
2023/05/28 10:45:15;;;;;;;5.78;4.40;;;18.10;99.20;;;;;;5020971;28;20050;-92
2023/05/28 10:47:50;;;;;;;6.88;4.72;;;18.10;98.90;;;;;;5027109;28;20048;-95
2023/05/28 10:50:17;;;;;;;7.70;4.35;;;19.30;99.00;;;;;;5031750;28;20053;-92
2023/05/28 10:53:04;;;;;;;6.35;3.85;;;18.40;98.20;;;;;;5030376;28;20042;-93
2023/05/28 10:55:53;;;;;;;6.95;4.15;;;18.40;97.50;;;;;;5032326;28;20038;-91
2023/05/28 10:58:35;;;;;;;8.10;3.70;;;18.50;97.20;;;;;;5041819;23;20054;-94
2023/05/28 11:01:20;;;;;;;8.02;3.47;;;18.70;97.20;;;;;;5041802;28;20086;-95
2023/05/28 11:03:54;;;;;;;5.93;3.20;;;19.10;97.10;;;;;;5067903;28;20045;-90
2023/05/28 11:06:20;;;;;;;7.18;3.20;;;18.90;96.70;;;;;;5064986;28;20524;-91
2023/05/28 11:08:48;;;;;;;7.78;2.83;;;20.00;97.00;;;;;;5064425;28;20107;-95
2023/05/28 11:11:15;;;;;;;6.43;2.90;;;19.10;96.90;;;;;;5038759;28;20560;-93
2023/05/28 11:13:48;;;;;;;6.47;2.78;;;19.10;96.90;;;;;;5060039;28;20040;-87
2023/05/28 11:16:16;;;;;;;7.00;2.50;;;19.20;97.30;;;;;;5068390;28;20051;-85
2023/05/28 11:19:01;;;;;;;8.15;2.80;;;19.40;97.40;;;;;;5048494;28;20075;-91
2023/05/28 11:21:27;;;;;;;7.90;2.85;;;19.80;97.60;;;;;;5043128;28;20045;-88
2023/05/28 11:24:03;;;;;;;6.53;2.58;;;19.70;97.40;;;;;;5056216;28;20036;-82
2023/05/28 11:26:30;;;;;;;5.90;2.95;;;19.70;97.10;;;;;;5071260;23;20064;-84
2023/05/28 11:28:58;;;;;;;6.45;2.55;;;19.80;97.50;;;;;;5054714;28;20095;-82
2023/05/28 11:31:24;;;;;;;7.80;2.72;;;19.90;97.80;;;;;;5051174;23;20061;-91
2023/05/28 11:33:50;;;;;;;6.00;2.65;;;20.30;98.40;;;;;;5184071;23;20044;-83
2023/05/28 11:36:18;;;;;;;7.85;2.90;;;20.20;98.70;;;;;;5059737;23;20049;-86
2023/05/28 11:38:43;;;;;;;9.00;3.78;;;20.40;99.00;;;;;;5049192;28;20389;-93
2023/05/28 11:41:09;;;;;;;9.13;3.60;;;20.50;99.00;;;;;;5083381;23;20045;-86
2023/05/28 11:43:35;;;;;;;14.68;7.45;;;20.40;99.30;;;;;;5057351;23;20053;-95
2023/05/28 11:46:01;;;;;;;9.00;2.95;;;20.60;98.90;;;;;;5080976;23;20028;-83
2023/05/28 11:48:27;;;;;;;7.88;3.08;;;20.70;99.10;;;;;;5050582;28;20115;-92
2023/05/28 11:51:00;;;;;;;7.57;2.97;;;21.10;99.00;;;;;;5045354;28;20094;-91
2023/05/28 11:53:43;;;;;;;6.53;2.88;;;21.10;98.70;;;;;;5067056;28;20353;-89
2023/05/28 11:56:10;;;;;;;7.45;2.53;;;21.20;98.50;;;;;;5070976;28;20060;-82
2023/05/28 11:58:41;;;;;;;9.02;3.13;;;21.20;98.50;;;;;;5071292;28;20041;-92
2023/05/28 12:01:07;;;;;;;11.60;4.00;;;21.30;98.20;;;;;;5060254;28;20044;-87
2023/05/28 12:06:06;;;;;;;9.13;3.60;;;21.40;98.40;;;;;;5065300;23;20046;-85
2023/05/28 12:08:32;;;;;;;7.78;3.28;;;21.60;98.50;;;;;;5046275;23;20103;-95
2023/05/28 12:11:02;;;;;;;9.82;3.95;;;21.50;98.10;;;;;;5031112;28;20469;-94
2023/05/28 12:13:33;;;;;;;10.95;4.25;;;21.60;97.80;;;;;;5034203;28;20091;-89
2023/05/28 12:16:12;;;;;;;9.00;3.97;;;21.60;97.90;;;;;;5038639;28;20571;-93
2023/05/28 12:18:44;;;;;;;5.72;3.67;;;21.70;98.00;;;;;;5040991;28;20048;-93
2023/05/28 12:21:20;;;;;;;6.60;3.33;;;21.80;97.80;;;;;;5042240;28;20394;-87
2023/05/28 12:23:47;;;;;;;7.15;3.25;;;21.80;97.80;;;;;;5060296;23;20477;-82
2023/05/28 12:26:14;;;;;;;7.72;3.60;;;22.40;98.20;;;;;;5083869;23;20041;-83
2023/05/28 12:28:41;;;;;;;9.55;3.47;;;21.90;98.80;;;;;;5058634;23;20064;-89
2023/05/28 12:31:08;;;;;;;11.82;4.00;;;22.00;98.60;;;;;;5056152;23;20297;-94
2023/05/28 12:33:34;;;;;;;11.18;4.25;;;22.10;98.90;;;;;;5067791;23;20073;-92
2023/05/28 12:36:00;;;;;;;8.73;4.03;;;22.80;99.50;;;;;;5044336;28;20050;-92
2023/05/28 12:38:26;;;;;;;13.55;4.97;;;22.80;99.50;;;;;;5048155;28;20112;-91
2023/05/28 12:40:52;;;;;;;17.60;5.47;;;22.20;99.40;;;;;;5045312;28;20068;-95
2023/05/28 12:43:18;;;;;;;16.05;4.78;;;22.20;99.10;;;;;;5035741;28;20045;-94